tititudorancea.com
Station Historical Data
Daily Summary for May 15, 2018 Units:  Metric    English   Both
« Previous Day
Next Day »
Daily Weekly Monthly Yearly Custom
  High: Low: Average:
Temperature: -17.8 °C 6.2 °C 9.4 °C
Dew Point: -17.8 °C 4 °C 6.8 °C
Humidity: Humidity % 59 % 84 %
Wind Speed: 0 km/h 0 km/h 8.9 km/h
Wind Gust: 0 km/h - -
Wind:- - SSW
Pressure: 0 hPa 1024.9 hPa -
Precipitation: 0 mm    
Historical Graphs
 
 
Ararat weather Find more about Weather in Ararat, AU


 



 


Tabular Data for May 15, 2018
Time Temperature Dew Point Pressure Wind Wind Speed Wind Gust Humidity Rainfall Rate (Hourly)
-17.8 °C -17.8 °C 0 hPa Calm     Humidity % 0 mm
00:01 8.8 °C 7.8 °C 1026 hPa South 3.4 km/h 5.6 km/h 93 % 0 mm
00:06 9 °C 7.9 °C 1026 hPa South 4.8 km/h 7.4 km/h 93 % 0 mm
00:11 9.1 °C 8.1 °C 1025.6 hPa South 2.9 km/h 3.7 km/h 93 % 0 mm
00:16 9.2 °C 8.1 °C 1026 hPa South 2.3 km/h 5.6 km/h 93 % 0 mm
00:21 9.2 °C 8.2 °C 1025.6 hPa North 5.3 km/h 7.4 km/h 93 % 0 mm
00:26 9.2 °C 8.2 °C 1025.6 hPa South 3.7 km/h 5.6 km/h 93 % 0 mm
00:31 9.2 °C 8.2 °C 1025.6 hPa South 3.7 km/h 9.7 km/h 93 % 0 mm
00:36 9.2 °C 8.2 °C 1025.6 hPa South 7.4 km/h 11.1 km/h 93 % 0 mm
00:41 9.2 °C 8.2 °C 1026 hPa South 5.5 km/h 9.3 km/h 93 % 0 mm
00:46 9.2 °C 8.2 °C 1026 hPa South 4.5 km/h 5.6 km/h 93 % 0 mm
00:51 9.3 °C 8.2 °C 1025.6 hPa South 5.5 km/h 8 km/h 93 % 0 mm
00:56 9.3 °C 8.3 °C 1025.6 hPa South 8.9 km/h 11.1 km/h 93 % 0 mm
01:01 9.3 °C 8.3 °C 1025.6 hPa South 5.6 km/h 11.1 km/h 93 % 0 mm
01:06 9.3 °C 8.3 °C 1025.6 hPa North 7.7 km/h 9.3 km/h 93 % 0 mm
01:11 9.4 °C 8.3 °C 1025.6 hPa South 7.1 km/h 8 km/h 93 % 0 mm
01:16 9.4 °C 8.3 °C 1025.6 hPa South 9.5 km/h 14.8 km/h 93 % 0 mm
01:21 9.4 °C 8.3 °C 1025.6 hPa South 8.9 km/h 16.1 km/h 93 % 0 mm
01:26 9.4 °C 8.3 °C 1025.6 hPa South 4.5 km/h 6.4 km/h 93 % 0 mm
01:31 9.4 °C 8.4 °C 1025.6 hPa South 4.8 km/h 7.4 km/h 93 % 0 mm
01:36 9.4 °C 8.4 °C 1025.6 hPa South 4.8 km/h 9.7 km/h 93 % 0 mm
01:41 9.4 °C 8.2 °C 1025.6 hPa South 4.5 km/h 7.4 km/h 92 % 0 mm
01:46 9.4 °C 8.2 °C 1025.6 hPa North 5.3 km/h 7.4 km/h 92 % 0 mm
01:51 9.4 °C 8.2 °C 1025.6 hPa South 8 km/h 13 km/h 92 % 0 mm
01:56 9.4 °C 8.2 °C 1025.6 hPa South 6.1 km/h 7.4 km/h 92 % 0 mm
02:01 9.4 °C 8.2 °C 1025.6 hPa South 9.3 km/h 11.1 km/h 92 % 0 mm
02:06 9.4 °C 8.2 °C 1025.6 hPa South 7.2 km/h 11.1 km/h 92 % 0 mm
02:11 9.3 °C 8.1 °C 1025.6 hPa South 8.2 km/h 14.8 km/h 92 % 0 mm
02:16 9.3 °C 7.9 °C 1025.6 hPa South 7.9 km/h 16.7 km/h 91 % 0 mm
02:21 9.3 °C 7.9 °C 1025.6 hPa South 10.8 km/h 13 km/h 91 % 0 mm
02:26 9.4 °C 7.8 °C 1025.6 hPa South 5.1 km/h 5.6 km/h 90 % 0 mm
02:31 9.3 °C 7.8 °C 1025.6 hPa South 9.3 km/h 14.8 km/h 90 % 0 mm
02:36 9.3 °C 7.6 °C 1025.6 hPa South 9 km/h 13 km/h 89 % 0 mm
02:41 9.4 °C 7.5 °C 1025.6 hPa SSW 9 km/h 18.5 km/h 88 % 0 mm
02:46 9.4 °C 7.4 °C 1025.6 hPa SSW 7.9 km/h 13 km/h 87 % 0 mm
02:51 9.4 °C 7.4 °C 1025.6 hPa SSW 9.5 km/h 11.3 km/h 87 % 0 mm
02:56 9.5 °C 7.3 °C 1025.6 hPa SSW 6.6 km/h 11.1 km/h 86 % 0 mm
03:01 9.5 °C 7.1 °C 1025.6 hPa South 11.4 km/h 14.5 km/h 85 % 0 mm
03:06 9.5 °C 7.1 °C 1025.3 hPa South 3.9 km/h 13 km/h 85 % 0 mm
03:11 9.5 °C 7.1 °C 1025.3 hPa South 10.5 km/h 11.3 km/h 85 % 0 mm
03:16 9.6 °C 7.2 °C 1025.3 hPa South 7.1 km/h 9.3 km/h 85 % 0 mm
03:21 9.6 °C 7 °C 1025.3 hPa South 7.6 km/h 11.1 km/h 84 % 0 mm
03:26 9.5 °C 7.1 °C 1025.3 hPa South 5.5 km/h 8 km/h 85 % 0 mm
03:31 9.6 °C 7.2 °C 1025.3 hPa South 4.7 km/h 6.4 km/h 85 % 0 mm
03:36 9.5 °C 7.1 °C 1025.3 hPa South 3.1 km/h 5.6 km/h 85 % 0 mm
03:41 9.5 °C 7.1 °C 1025.3 hPa South 4.5 km/h 7.4 km/h 85 % 0 mm
03:46 9.5 °C 7.1 °C 1024.9 hPa South 1 km/h 6.4 km/h 85 % 0 mm
03:51 9.5 °C 7.1 °C 1024.9 hPa South 0.6 km/h 3.7 km/h 85 % 0 mm
03:56 9.4 °C 7.1 °C 1024.9 hPa South 3.1 km/h 5.6 km/h 85 % 0 mm
04:01 9.4 °C 7.2 °C 1024.9 hPa North 4.7 km/h 7.4 km/h 86 % 0 mm
04:06 9.5 °C 7.3 °C 1024.9 hPa South 2.1 km/h 5.6 km/h 86 % 0 mm
04:11 9.5 °C 7.3 °C 1024.9 hPa South 3.4 km/h 7.4 km/h 86 % 0 mm
04:16 9.5 °C 7.3 °C 1024.9 hPa South 7.4 km/h 9.3 km/h 86 % 0 mm
04:21 9.6 °C 7.3 °C 1024.9 hPa North 11.4 km/h 14.8 km/h 86 % 0 mm
04:26 9.6 °C 7.3 °C 1024.9 hPa South 3.9 km/h 5.6 km/h 86 % 0 mm
04:31 9.6 °C 7.4 °C 1024.9 hPa South 7.4 km/h 14.8 km/h 86 % 0 mm
04:36 9.6 °C 7.4 °C 1024.9 hPa South 12.4 km/h 18.5 km/h 86 % 0 mm
04:41 9.6 °C 7.4 °C 1024.9 hPa South 4.7 km/h 7.4 km/h 86 % 0 mm
04:46 9.6 °C 7.2 °C 1024.9 hPa South 2.7 km/h 3.7 km/h 85 % 0 mm
04:51 9.6 °C 7.2 °C 1024.9 hPa North 3.7 km/h 7.4 km/h 85 % 0 mm
04:56 9.5 °C 7.1 °C 1024.9 hPa North 6.9 km/h 9.3 km/h 85 % 0 mm
05:01 9.5 °C 7.1 °C 1024.9 hPa South 7.1 km/h 9.3 km/h 85 % 0 mm
05:06 9.4 °C 7.1 °C 1024.9 hPa South 5 km/h 7.4 km/h 85 % 0 mm
05:11 9.4 °C 7.1 °C 1024.9 hPa South 3.1 km/h 7.4 km/h 85 % 0 mm
05:16 9.4 °C 7.1 °C 1024.9 hPa South 4 km/h 11.1 km/h 85 % 0 mm
05:21 9.4 °C 7.1 °C 1025.3 hPa South 3.7 km/h 5.6 km/h 85 % 0 mm
05:26 9.4 °C 7.1 °C 1025.3 hPa South 3.7 km/h 5.6 km/h 85 % 0 mm
05:31 9.5 °C 7.1 °C 1024.9 hPa South 1.9 km/h 3.7 km/h 85 % 0 mm
05:36 9.5 °C 7.1 °C 1024.9 hPa Calm     85 % 0 mm
05:41 9.4 °C 7.1 °C 1024.9 hPa Calm     85 % 0 mm
05:46 9.4 °C 7.1 °C 1025.3 hPa South 4.3 km/h 5.6 km/h 85 % 0 mm
05:51 9.4 °C 7 °C 1025.3 hPa North 3.2 km/h 5.6 km/h 85 % 0 mm
05:56 9.4 °C 7 °C 1025.3 hPa South 1.4 km/h 5.6 km/h 85 % 0 mm
06:01 9.3 °C 7.1 °C 1025.3 hPa South 2.4 km/h 7.4 km/h 86 % 0 mm
06:06 9.3 °C 7.1 °C 1025.3 hPa Calm   3.7 km/h 86 % 0 mm
06:11 9.3 °C 7.1 °C 1025.3 hPa North 2.4 km/h 5.6 km/h 86 % 0 mm
06:16 9.3 °C 7.1 °C 1025.3 hPa South 1.6 km/h 3.7 km/h 86 % 0 mm
06:21 9.3 °C 7.1 °C 1025.3 hPa South 2.7 km/h 6.4 km/h 86 % 0 mm
06:26 9.3 °C 7.1 °C 1025.3 hPa Calm   3.7 km/h 86 % 0 mm
06:31 9.3 °C 7.2 °C 1025.3 hPa North 4 km/h 7.4 km/h 87 % 0 mm
06:36 9.3 °C 7.2 °C 1025.3 hPa South 3.5 km/h 5.6 km/h 87 % 0 mm
06:41 9.3 °C 7.2 °C 1025.3 hPa South 2.1 km/h 5.6 km/h 87 % 0 mm
06:46 9.2 °C 7.2 °C 1025.3 hPa South 1.4 km/h 5.6 km/h 87 % 0 mm
06:51 9.2 °C 7.1 °C 1025.6 hPa South 1.9 km/h 5.6 km/h 87 % 0 mm
06:56 9.1 °C 7.2 °C 1025.6 hPa South 3.2 km/h 7.4 km/h 88 % 0 mm
07:01 9 °C 7.1 °C 1025.6 hPa South 1.4 km/h 5.6 km/h 88 % 0 mm
07:06 8.9 °C 7.2 °C 1025.6 hPa South 3.7 km/h 3.7 km/h 89 % 0 mm
07:11 8.9 °C 7.2 °C 1026 hPa South 2.4 km/h 8 km/h 89 % 0 mm
07:16 8.9 °C 7.2 °C 1026 hPa South 1.8 km/h 5.6 km/h 89 % 0 mm
07:21 8.9 °C 7.2 °C 1026 hPa South 2.9 km/h 9.7 km/h 89 % 0 mm
07:26 8.9 °C 7.3 °C 1026 hPa South 9.5 km/h 13 km/h 90 % 0 mm
07:31 8.9 °C 7.3 °C 1026 hPa South 9.5 km/h 13 km/h 90 % 0 mm
07:37 8.9 °C 7.4 °C 1026 hPa South 6.9 km/h 13 km/h 90 % 0 mm
07:42 9 °C 7.4 °C 1026 hPa North 5.1 km/h 7.4 km/h 90 % 0 mm
07:47 9.1 °C 7.3 °C 1026 hPa South 6.6 km/h 11.1 km/h 89 % 0 mm
07:52 9.2 °C 7.4 °C 1026 hPa South 3.4 km/h 7.4 km/h 89 % 0 mm
07:57 9.2 °C 7.5 °C 1026.3 hPa South 7.1 km/h 8 km/h 89 % 0 mm
08:02 9.4 °C 7.7 °C 1026.3 hPa South 8.5 km/h 13 km/h 89 % 0 mm
08:07 9.5 °C 7.8 °C 1026.3 hPa South 9.7 km/h 9.7 km/h 89 % 0 mm
08:12 9.6 °C 7.7 °C 1026.3 hPa South 9.2 km/h 11.1 km/h 88 % 0 mm
08:17 9.7 °C 7.8 °C 1026.3 hPa South 7.2 km/h 8 km/h 88 % 0 mm
08:22 9.7 °C 7.7 °C 1026.3 hPa South 6.3 km/h 6.4 km/h 87 % 0 mm
08:27 9.8 °C 7.7 °C 1026.3 hPa South 5.1 km/h 8 km/h 87 % 0 mm
08:32 9.8 °C 7.8 °C 1026.3 hPa Calm   5.6 km/h 87 % 0 mm
08:37 10 °C 8.1 °C 1026.3 hPa Calm     88 % 0 mm
08:42 10.3 °C 8.4 °C 1026.3 hPa North 2.3 km/h 3.7 km/h 88 % 0 mm
08:47 10.4 °C 8.3 °C 1026.3 hPa South 0.3 km/h 3.7 km/h 87 % 0 mm
08:52 10.6 °C 8.5 °C 1026.3 hPa South 1.9 km/h 5.6 km/h 87 % 0 mm
08:57 10.8 °C 8.7 °C 1026.3 hPa South 1.1 km/h 8 km/h 87 % 0 mm
09:02 10.9 °C 8.5 °C 1026.3 hPa South 7.9 km/h 11.1 km/h 85 % 0 mm
09:07 11.1 °C 8.6 °C 1026.3 hPa North 3.7 km/h 7.4 km/h 85 % 0 mm
09:12 11.1 °C 8.7 °C 1026.6 hPa South 4.5 km/h 8 km/h 85 % 0 mm
09:17 11.2 °C 8.7 °C 1026.6 hPa South 8.4 km/h 11.1 km/h 85 % 0 mm
09:22 11.1 °C 8.7 °C 1026.6 hPa North 9.3 km/h 14.8 km/h 85 % 0 mm
09:27 11 °C 8.7 °C 1026.6 hPa North 7.6 km/h 11.1 km/h 86 % 0 mm
09:32 10.8 °C 8.9 °C 1026.6 hPa SSW 11.6 km/h 16.7 km/h 88 % 0 mm
09:36 10.7 °C 8.9 °C 1026.6 hPa SSW 12.7 km/h 18.5 km/h 89 % 0 mm
09:41 10.5 °C 8.9 °C 1026.6 hPa North 13.2 km/h 16.7 km/h 90 % 0 mm
09:46 10.4 °C 8.8 °C 1026.6 hPa SSW 10.3 km/h 13 km/h 90 % 0 mm
09:51 10.4 °C 9 °C 1026.6 hPa SSW 8.7 km/h 11.1 km/h 91 % 0 mm
09:56 10.4 °C 9.2 °C 1026.6 hPa SSW 8.2 km/h 9.7 km/h 92 % 0 mm
10:01 10.5 °C 9.3 °C 1026.6 hPa SSW 5.3 km/h 9.3 km/h 92 % 0 mm
10:06 10.6 °C 9.4 °C 1026.6 hPa SSW 8.5 km/h 13 km/h 93 % 0 mm
10:11 10.6 °C 9.5 °C 1026.6 hPa SSW 10 km/h 14.8 km/h 93 % 0 mm
10:16 10.5 °C 9.3 °C 1026.6 hPa SW 12.6 km/h 16.7 km/h 92 % 0 mm
10:21 10.4 °C 9.3 °C 1027 hPa SW 13 km/h 18.5 km/h 93 % 0 mm
10:26 10.4 °C 9.3 °C 1027 hPa North 16.4 km/h 22.2 km/h 93 % 0 mm
10:31 10.4 °C 9.3 °C 1027 hPa SW 11.4 km/h 16.7 km/h 93 % 0 mm
10:36 10.4 °C 9.5 °C 1027 hPa SSW 11.9 km/h 16.7 km/h 94 % 0 mm
10:41 10.5 °C 9.6 °C 1027 hPa SSW 10.8 km/h 16.7 km/h 94 % 0 mm
10:46 10.6 °C 9.6 °C 1027 hPa SSW 15.4 km/h 22.2 km/h 94 % 0 mm
10:51 10.6 °C 9.7 °C 1027 hPa North 16.3 km/h 22.2 km/h 94 % 0 mm
10:56 10.7 °C 9.7 °C 1027 hPa SSW 15.1 km/h 20.9 km/h 94 % 0 mm
11:01 10.7 °C 9.7 °C 1027 hPa SSW 9.2 km/h 16.7 km/h 94 % 0 mm
11:06 10.8 °C 9.9 °C 1027 hPa SSW 11.6 km/h 14.8 km/h 94 % 0 mm
11:11 10.9 °C 10 °C 1027.3 hPa SSW 18.5 km/h 29.6 km/h 94 % 0 mm
11:16 11 °C 10.1 °C 1027.3 hPa SSW 13.8 km/h 20.4 km/h 94 % 0 mm
11:21 11 °C 10.1 °C 1027.3 hPa South 15.8 km/h 24.1 km/h 94 % 0 mm
11:26 11.1 °C 10.3 °C 1027.3 hPa South 14.2 km/h 18.5 km/h 95 % 0 mm
11:31 10.8 °C 9.8 °C 1027.3 hPa North 27 km/h 38.9 km/h 94 % 0 mm
11:36 10.7 °C 9.7 °C 1027.3 hPa SSW 14 km/h 27.8 km/h 94 % 0 mm
11:41 10.7 °C 9.8 °C 1027.3 hPa South 15.3 km/h 24.1 km/h 94 % 0 mm
11:46 10.6 °C 9.7 °C 1027.3 hPa South 16.4 km/h 27.8 km/h 94 % 0 mm
11:51 10.3 °C 9.3 °C 1027.7 hPa SSE 21.4 km/h 37 km/h 94 % 0 mm
11:56 10.4 °C 9.4 °C 1027.7 hPa South 25.9 km/h 35.2 km/h 94 % 0 mm
12:01 10.6 °C 9.6 °C 1027.3 hPa South 16.7 km/h 24.1 km/h 94 % 0 mm
12:06 10.8 °C 9.8 °C 1027.3 hPa SSE 26.6 km/h 40.7 km/h 94 % 0 mm
12:11 10.9 °C 10 °C 1027.3 hPa South 13.7 km/h 17.7 km/h 94 % 0 mm
12:16 11.1 °C 9.8 °C 1027.3 hPa South 16.6 km/h 31.5 km/h 92 % 0 mm
12:21 11.6 °C 10.1 °C 1027.3 hPa SSE 13.8 km/h 24.1 km/h 91 % 0 mm
12:26 11.9 °C 9.9 °C 1027 hPa South 12.7 km/h 20.4 km/h 88 % 0 mm
12:31 12 °C 9.6 °C 1027 hPa South 18.2 km/h 27.4 km/h 85 % 0 mm
12:36 12.1 °C 9.1 °C 1027 hPa SSE 21.1 km/h 31.5 km/h 82 % 0 mm
12:41 12.3 °C 8.9 °C 1027 hPa South 17.4 km/h 25.9 km/h 80 % 0 mm
12:46 12.3 °C 9 °C 1027 hPa South 18.7 km/h 31.5 km/h 80 % 0 mm
12:51 12.4 °C 9.2 °C 1027 hPa SSE 12.9 km/h 20.4 km/h 81 % 0 mm
12:56 12.4 °C 9.1 °C 1027 hPa SSW 17.4 km/h 24.1 km/h 80 % 0 mm
13:01 12.6 °C 9.1 °C 1026.6 hPa South 15.6 km/h 24.1 km/h 79 % 0 mm
13:06 12.5 °C 8.8 °C 1026.6 hPa South 22.7 km/h 29.6 km/h 78 % 0 mm
13:11 12.2 °C 8.7 °C 1026.6 hPa South 13.8 km/h 22.2 km/h 79 % 0 mm
13:16 12.2 °C 8.6 °C 1026.6 hPa SSE 16.4 km/h 22.2 km/h 79 % 0 mm
13:21 12.1 °C 8.7 °C 1026.6 hPa South 12.9 km/h 22.2 km/h 80 % 0 mm
13:26 11.8 °C 8.6 °C 1027 hPa South 15.4 km/h 27.8 km/h 81 % 0 mm
13:31 11.6 °C 8.8 °C 1027 hPa SSE 12.9 km/h 24.1 km/h 83 % 0 mm
13:36 11.4 °C 9 °C 1027 hPa SSE 10.8 km/h 14.8 km/h 85 % 0 mm
13:41 11.6 °C 9.1 °C 1026.6 hPa South 15 km/h 27.8 km/h 85 % 0 mm
13:46 11.8 °C 9 °C 1026.6 hPa South 18.3 km/h 25.9 km/h 83 % 0 mm
13:51 11.8 °C 8.8 °C 1026.6 hPa South 10.8 km/h 18.5 km/h 82 % 0 mm
13:56 12.1 °C 8.7 °C 1026.6 hPa South 20.8 km/h 27.8 km/h 80 % 0 mm
14:01 12.1 °C 7.9 °C 1026.6 hPa SSE 13.5 km/h 24.1 km/h 76 % 0 mm
14:06 11.8 °C 7.3 °C 1026.6 hPa South 23.8 km/h 29.6 km/h 74 % 0 mm
14:11 11.8 °C 7.3 °C 1026.6 hPa SSW 12.7 km/h 18.5 km/h 74 % 0 mm
14:16 11.9 °C 7.2 °C 1026.6 hPa SSE 15.3 km/h 24.1 km/h 73 % 0 mm
14:21 12 °C 6.9 °C 1026.6 hPa South 22.2 km/h 31.5 km/h 71 % 0 mm
14:26 12.1 °C 6.9 °C 1026.6 hPa SW 16.1 km/h 24.1 km/h 71 % 0 mm
14:31 12.1 °C 7.2 °C 1027 hPa South 17.2 km/h 24.1 km/h 72 % 0 mm
14:36 12 °C 7.1 °C 1027 hPa SSE 14 km/h 29 km/h 72 % 0 mm
14:41 11.8 °C 7.2 °C 1027 hPa SSW 15.6 km/h 20.4 km/h 73 % 0 mm
14:46 11.9 °C 7.4 °C 1027 hPa South 12.1 km/h 20.4 km/h 74 % 0 mm
14:51 12.1 °C 7.6 °C 1027 hPa South 21.9 km/h 27.8 km/h 74 % 0 mm
14:56 11.9 °C 6.8 °C 1027 hPa South 17.9 km/h 25.9 km/h 71 % 0 mm
15:01 11.9 °C 6.6 °C 1027 hPa South 17.7 km/h 24.1 km/h 70 % 0 mm
15:06 12.1 °C 6.9 °C 1027 hPa SSW 16.4 km/h 24.1 km/h 71 % 0 mm
15:11 12.2 °C 6.5 °C 1027 hPa SSW 21.6 km/h 33.3 km/h 68 % 0 mm
15:16 12.3 °C 6.2 °C 1027.3 hPa SSW 20.6 km/h 31.5 km/h 66 % 0 mm
15:21 12 °C 5.4 °C 1027.3 hPa SSW 18.7 km/h 31.5 km/h 64 % 0 mm
15:26 12 °C 5.6 °C 1027.3 hPa SSW 16.6 km/h 24.1 km/h 65 % 0 mm
15:31 12.3 °C 5.7 °C 1027.3 hPa SW 12.4 km/h 14.8 km/h 64 % 0 mm
15:36 12.3 °C 5.2 °C 1027.3 hPa South 12.9 km/h 24.1 km/h 62 % 0 mm
15:41 12.1 °C 4.8 °C 1027.3 hPa South 16.6 km/h 29.6 km/h 61 % 0 mm
15:46 12.2 °C 5.2 °C 1027.3 hPa South 16.9 km/h 33.8 km/h 62 % 0 mm
15:51 12.3 °C 4.8 °C 1027.3 hPa SW 13.4 km/h 24.1 km/h 60 % 0 mm
15:56 12.2 °C 4.4 °C 1027.3 hPa South 14.6 km/h 27.8 km/h 59 % 0 mm
16:01 11.8 °C 4.6 °C 1027.3 hPa South 9.7 km/h 18.5 km/h 61 % 0 mm
16:06 11.8 °C 4.7 °C 1027.3 hPa South 13.2 km/h 18.5 km/h 62 % 0 mm
16:11 11.8 °C 5 °C 1027.3 hPa South 11.4 km/h 14.8 km/h 63 % 0 mm
16:16 11.9 °C 4.7 °C 1027.3 hPa South 7.4 km/h 24.1 km/h 61 % 0 mm
16:21 12 °C 4.4 °C 1027.7 hPa SSW 19 km/h 27.8 km/h 60 % 0 mm
16:26 12.1 °C 4.5 °C 1027.3 hPa SSE 16.4 km/h 31.5 km/h 60 % 0 mm
16:31 12 °C 4.7 °C 1027.3 hPa SSE 18.5 km/h 31.5 km/h 61 % 0 mm
16:36 12 °C 4.9 °C 1027.7 hPa SSW 16.4 km/h 25.9 km/h 62 % 0 mm
16:41 11.8 °C 6.1 °C 1027.7 hPa South 15.1 km/h 22.2 km/h 68 % 0 mm
16:46 11.6 °C 6.5 °C 1027.7 hPa South 20 km/h 20 km/h 71 % 0 mm
16:51 11.3 °C 6.4 °C 1027.7 hPa South 19.2 km/h 24.1 km/h 72 % 0 mm
16:56 11.1 °C 6.3 °C 1027.7 hPa South 20.3 km/h 20.4 km/h 72 % 0 mm
17:01 10.9 °C 6.2 °C 1027.7 hPa North 10.8 km/h 22.2 km/h 73 % 0 mm
17:06 10.8 °C 6.3 °C 1027.7 hPa SSW 14.8 km/h 22.2 km/h 74 % 0 mm
17:11 10.8 °C 6.3 °C 1028 hPa South 9.3 km/h 18.5 km/h 74 % 0 mm
17:16 10.7 °C 6.3 °C 1028 hPa South 14.2 km/h 22.2 km/h 74 % 0 mm
17:21 10.6 °C 6.2 °C 1028 hPa South 10.8 km/h 18.5 km/h 74 % 0 mm
17:26 10.4 °C 6 °C 1028 hPa South 9.3 km/h 18.5 km/h 74 % 0 mm
17:31 10.3 °C 5.8 °C 1028 hPa South 11.1 km/h 18.5 km/h 74 % 0 mm
17:36 10.2 °C 5.7 °C 1028 hPa South 9.8 km/h 14.8 km/h 74 % 0 mm
17:41 10 °C 5.8 °C 1028 hPa SSE 13.5 km/h 16.7 km/h 75 % 0 mm
17:46 9.9 °C 5.7 °C 1028 hPa South 5.1 km/h 9.3 km/h 75 % 0 mm
17:51 9.7 °C 5.7 °C 1028 hPa South 8.4 km/h 11.3 km/h 76 % 0 mm
17:56 9.6 °C 5.6 °C 1028.3 hPa South 7.2 km/h 11.1 km/h 76 % 0 mm
18:01 9.4 °C 5.6 °C 1028 hPa South 6.8 km/h 9.3 km/h 77 % 0 mm
18:06 9.3 °C 5.4 °C 1028.3 hPa South 8.2 km/h 11.1 km/h 77 % 0 mm
18:11 9.2 °C 5.3 °C 1028.3 hPa South 8 km/h 11.1 km/h 77 % 0 mm
18:16 9.1 °C 5.4 °C 1028.3 hPa South 10.1 km/h 13 km/h 78 % 0 mm
18:21 8.9 °C 5.3 °C 1028.3 hPa South 9 km/h 11.1 km/h 78 % 0 mm
18:26 8.8 °C 5.2 °C 1028.7 hPa South 10.5 km/h 13 km/h 78 % 0 mm
18:31 8.7 °C 5.2 °C 1028.7 hPa SSE 7.1 km/h 11.1 km/h 79 % 0 mm
18:36 8.6 °C 5.1 °C 1028.7 hPa South 8.5 km/h 13 km/h 79 % 0 mm
18:41 8.4 °C 5.2 °C 1028.7 hPa South 9.2 km/h 13 km/h 80 % 0 mm
18:46 8.4 °C 5.1 °C 1028.7 hPa South 7.7 km/h 11.3 km/h 80 % 0 mm
18:51 8.3 °C 5.1 °C 1029 hPa South 7.9 km/h 9.3 km/h 80 % 0 mm
18:56 8.2 °C 5.2 °C 1029 hPa South 6 km/h 11.1 km/h 81 % 0 mm
19:01 8.1 °C 5.1 °C 1029 hPa South 4.2 km/h 11.1 km/h 81 % 0 mm
19:06 8 °C 4.9 °C 1029 hPa South 8 km/h 11.1 km/h 81 % 0 mm
19:11 7.9 °C 5.1 °C 1029 hPa South 12.4 km/h 16.7 km/h 82 % 0 mm
19:16 7.9 °C 4.8 °C 1029.3 hPa South 10 km/h 13 km/h 81 % 0 mm
19:21 7.8 °C 4.8 °C 1029.3 hPa South 10.3 km/h 16.7 km/h 81 % 0 mm
19:26 7.8 °C 4.8 °C 1029.3 hPa South 8.2 km/h 9.3 km/h 81 % 0 mm
19:31 7.8 °C 4.7 °C 1029.3 hPa South 9 km/h 11.1 km/h 81 % 0 mm
19:36 7.7 °C 4.7 °C 1029.3 hPa North 8 km/h 13 km/h 81 % 0 mm
19:41 7.7 °C 4.8 °C 1029.7 hPa South 8 km/h 14.5 km/h 82 % 0 mm
19:46 7.6 °C 4.7 °C 1029.7 hPa South 9.3 km/h 14.8 km/h 82 % 0 mm
19:51 7.5 °C 4.6 °C 1029.7 hPa South 9.2 km/h 14.8 km/h 82 % 0 mm
19:56 7.4 °C 4.7 °C 1029.7 hPa South 6.6 km/h 11.1 km/h 83 % 0 mm
20:01 7.4 °C 4.7 °C 1029.7 hPa South 6.4 km/h 11.1 km/h 83 % 0 mm
20:06 7.3 °C 4.6 °C 1029.7 hPa South 6.6 km/h 7.4 km/h 83 % 0 mm
20:11 7.2 °C 4.5 °C 1030 hPa South 7.6 km/h 13 km/h 83 % 0 mm
20:16 7.2 °C 4.7 °C 1030 hPa South 5 km/h 8 km/h 84 % 0 mm
20:21 7.1 °C 4.6 °C 1030 hPa South 6.9 km/h 9.3 km/h 84 % 0 mm
20:26 7.1 °C 4.6 °C 1030 hPa South 3.2 km/h 6.4 km/h 84 % 0 mm
20:31 6.9 °C 4.4 °C 1030 hPa South 6.9 km/h 12.9 km/h 84 % 0 mm
20:36 6.9 °C 4.4 °C 1030 hPa South 5.1 km/h 9.3 km/h 84 % 0 mm
20:41 6.8 °C 4.4 °C 1030 hPa South 6.9 km/h 9.3 km/h 85 % 0 mm
20:46 6.8 °C 4.4 °C 1030 hPa South 4 km/h 5.6 km/h 85 % 0 mm
20:51 6.7 °C 4.4 °C 1030 hPa South 5.6 km/h 9.7 km/h 85 % 0 mm
20:56 6.7 °C 4.3 °C 1030.4 hPa South 1.6 km/h 7.4 km/h 85 % 0 mm
21:01 6.6 °C 4.3 °C 1030.4 hPa South 4 km/h 7.4 km/h 85 % 0 mm
21:06 6.5 °C 4.2 °C 1030.4 hPa South 5.8 km/h 5.8 km/h 85 % 0 mm
21:11 6.4 °C 4.1 °C 1030.4 hPa South 4 km/h 5.6 km/h 85 % 0 mm
21:16 6.4 °C 4.2 °C 1030.4 hPa South 3.7 km/h 5.6 km/h 86 % 0 mm
21:19 6.3 °C 4 °C 1030.4 hPa North 5 km/h 6.4 km/h 85 % 0 mm
21:24 6.3 °C 4.2 °C 1030.4 hPa South 5.3 km/h 9.3 km/h 86 % 0 mm
21:29 6.4 °C 4.2 °C 1030.4 hPa South 8.9 km/h 13 km/h 86 % 0 mm
21:34 6.5 °C 4.3 °C 1030.4 hPa South 8 km/h 9.7 km/h 86 % 0 mm
21:39 6.5 °C 4.3 °C 1030.4 hPa North 6.4 km/h 7.4 km/h 86 % 0 mm
21:44 6.5 °C 4.5 °C 1030.4 hPa South 6.8 km/h 9.3 km/h 87 % 0 mm
21:49 6.6 °C 4.6 °C 1030.4 hPa North 5.1 km/h 9.3 km/h 87 % 0 mm
21:54 6.5 °C 4.5 °C 1030.4 hPa South 6.4 km/h 9.3 km/h 87 % 0 mm
21:59 6.5 °C 4.5 °C 1030.4 hPa South 6.8 km/h 9.3 km/h 87 % 0 mm
22:04 6.5 °C 4.5 °C 1030.4 hPa South 6.4 km/h 9.3 km/h 87 % 0 mm
22:09 6.6 °C 5.3 °C 1030.4 hPa South 9 km/h 13 km/h 92 % 0 mm
22:14 6.6 °C 4.8 °C 1030.4 hPa South 7.4 km/h 14.8 km/h 88 % 0 mm
22:19 6.7 °C 4.9 °C 1030.4 hPa South 4.2 km/h 5.6 km/h 88 % 0 mm
22:24 6.7 °C 4.8 °C 1030.4 hPa South 2.7 km/h 5.6 km/h 88 % 0 mm
22:29 6.6 °C 4.8 °C 1030.4 hPa South 4.3 km/h 7.4 km/h 88 % 0 mm
22:34 6.6 °C 5.3 °C 1030.4 hPa South 4.2 km/h 7.4 km/h 92 % 0 mm
22:39 6.4 °C 4.6 °C 1030.4 hPa South 6.4 km/h 6.4 km/h 88 % 0 mm
22:44 6.4 °C 4.6 °C 1030.4 hPa South 3.9 km/h 7.4 km/h 88 % 0 mm
22:49 6.4 °C 4.6 °C 1030.4 hPa South 2.9 km/h 5.6 km/h 88 % 0 mm
22:54 6.3 °C 4.5 °C 1030.4 hPa North 4.5 km/h 7.4 km/h 88 % 0 mm
22:59 6.3 °C 4.5 °C 1030.4 hPa South 5.8 km/h 8 km/h 88 % 0 mm
23:04 6.3 °C 4.4 °C 1030.4 hPa South 5.3 km/h 7.4 km/h 88 % 0 mm
23:09 6.3 °C 4.6 °C 1030.4 hPa South 5.5 km/h 7.4 km/h 89 % 0 mm
23:14 6.2 °C 4.6 °C 1030.4 hPa South 4.2 km/h 5.6 km/h 89 % 0 mm
23:19 6.2 °C 4.5 °C 1030.4 hPa South 7.1 km/h 11.1 km/h 89 % 0 mm
23:24 6.2 °C 4.6 °C 1030.4 hPa South 6 km/h 9.3 km/h 89 % 0 mm
23:29 6.2 °C 4.5 °C 1030.4 hPa South 4.7 km/h 7.4 km/h 89 % 0 mm
23:34 6.2 °C 4.6 °C 1030.4 hPa South 3.9 km/h 5.6 km/h 89 % 0 mm
23:39 6.2 °C 4.6 °C 1030.4 hPa South 6 km/h 11.3 km/h 89 % 0 mm
23:44 6.5 °C 4.8 °C 1030.4 hPa North 7.6 km/h 14.8 km/h 89 % 0 mm
23:49 6.7 °C 5 °C 1030.4 hPa South 5.3 km/h 9.3 km/h 89 % 0 mm
23:54 6.8 °C 5 °C 1030.4 hPa South 2.3 km/h 5.6 km/h 88 % 0 mm
23:59 6.9 °C 5.1 °C 1030.4 hPa South 5.8 km/h 7.4 km/h 88 % 0 mm
Ararat Weather
Compliments of Weather Underground - 2.5 mb
Click here to send mail.


ABOUT

Live weather data from Ararat, Victoria, Australia, 3377
Data uploaded from Cumulus every 5 minutes to Weather Underground.
This site then downloads the raw data for formatting and display.
Metric and imperial data can be displayed. Graphs and historical data available.
Includes Sun and Moon times and rain image live from BOM.

Check out Ararat Weather on Facebook, Twitter and Google +

Help support ongoing costs by checking out the ads





Follow @AraratWeather